createdAt,value
2022-08-17T00:00:08.758Z,1010.05
2022-08-17T00:01:08.977Z,1010.08
2022-08-17T00:02:09.843Z,1010.04
2022-08-17T00:03:10.442Z,1010.06
2022-08-17T00:04:10.894Z,1010.05
2022-08-17T00:05:09.649Z,1010.03
2022-08-17T00:06:09.827Z,1010.02
2022-08-17T00:07:09.983Z,1009.99
2022-08-17T00:08:10.173Z,1010.06
2022-08-17T00:09:10.333Z,1010.04
2022-08-17T00:10:11.525Z,1010.00
2022-08-17T00:11:10.732Z,1010.03
2022-08-17T00:12:42.703Z,1010.02
2022-08-17T00:13:12.066Z,1010.05
2022-08-17T00:14:11.256Z,1010.05
2022-08-17T00:15:11.416Z,1010.04
2022-08-17T00:16:11.615Z,1010.03
2022-08-17T00:17:11.777Z,1010.08
2022-08-17T00:19:02.443Z,1010.08
2022-08-17T00:19:13.101Z,1010.06
2022-08-17T00:20:12.321Z,1010.07
2022-08-17T00:21:12.456Z,1010.10
2022-08-17T00:22:34.309Z,1010.06
2022-08-17T00:23:13.788Z,1010.09
2022-08-17T00:24:12.967Z,1010.10
2022-08-17T00:25:13.159Z,1010.12
2022-08-17T00:26:14.236Z,1010.08
2022-08-17T00:27:13.510Z,1010.06
2022-08-17T00:28:13.670Z,1010.11
2022-08-17T00:29:19.407Z,1010.12
2022-08-17T00:30:15.033Z,1010.13
2022-08-17T00:31:14.221Z,1010.12
2022-08-17T00:33:14.624Z,1010.12
2022-08-17T00:33:17.077Z,1010.13
2022-08-17T00:34:14.733Z,1010.14
2022-08-17T00:35:14.894Z,1010.15
2022-08-17T00:36:15.074Z,1010.16
2022-08-17T00:37:15.213Z,1010.12
2022-08-17T00:38:15.378Z,1010.12
2022-08-17T00:39:15.545Z,1010.12
2022-08-17T00:40:15.764Z,1010.13
2022-08-17T00:41:15.867Z,1010.13
2022-08-17T00:42:16.047Z,1010.12
2022-08-17T00:43:16.206Z,1010.12
2022-08-17T00:44:16.396Z,1010.16
2022-08-17T00:45:16.553Z,1010.16
2022-08-17T00:46:16.736Z,1010.18
2022-08-17T00:47:16.901Z,1010.16
2022-08-17T00:48:29.961Z,1010.19
2022-08-17T00:49:18.258Z,1010.23
2022-08-17T00:50:17.438Z,1010.21
2022-08-17T00:51:17.591Z,1010.19
2022-08-17T00:52:17.764Z,1010.16
2022-08-17T00:53:17.930Z,1010.17
2022-08-17T00:54:18.090Z,1010.20
2022-08-17T00:55:18.250Z,1010.15
2022-08-17T00:56:18.437Z,1010.13
2022-08-17T00:57:18.571Z,1010.12
2022-08-17T00:58:18.751Z,1010.15
2022-08-17T00:59:19.894Z,1010.14
2022-08-17T01:00:19.083Z,1010.17
2022-08-17T01:01:21.835Z,1010.15
2022-08-17T01:02:19.433Z,1010.15
2022-08-17T01:03:19.606Z,1010.14
2022-08-17T01:04:19.764Z,1010.14
2022-08-17T01:05:19.928Z,1010.14
2022-08-17T01:06:20.105Z,1010.14
2022-08-17T01:07:20.271Z,1010.14
2022-08-17T01:08:20.447Z,1010.12
2022-08-17T01:09:20.606Z,1010.16
2022-08-17T01:10:59.503Z,1010.15
2022-08-17T01:11:21.966Z,1010.14
2022-08-17T01:12:21.167Z,1010.15
2022-08-17T01:13:21.336Z,1010.14
2022-08-17T01:14:21.534Z,1010.17
2022-08-17T01:15:21.688Z,1010.15
2022-08-17T01:16:21.853Z,1010.19
2022-08-17T01:17:22.019Z,1010.24
2022-08-17T01:18:22.183Z,1010.25
2022-08-17T01:19:22.347Z,1010.24
2022-08-17T01:20:22.499Z,1010.25
2022-08-17T01:21:22.659Z,1010.22
2022-08-17T01:22:22.875Z,1010.23
2022-08-17T01:23:23.030Z,1010.21
2022-08-17T01:24:23.183Z,1010.22
2022-08-17T01:25:23.345Z,1010.21
2022-08-17T01:26:23.504Z,1010.22
2022-08-17T01:27:23.680Z,1010.19
2022-08-17T01:28:33.622Z,1010.20
2022-08-17T01:29:24.990Z,1010.22
2022-08-17T01:30:58.722Z,1010.23
2022-08-17T01:31:25.367Z,1010.26
2022-08-17T01:32:24.587Z,1010.25
2022-08-17T01:33:24.711Z,1010.22
2022-08-17T01:34:24.872Z,1010.26
2022-08-17T01:35:26.056Z,1010.28
2022-08-17T01:36:25.238Z,1010.29
2022-08-17T01:37:25.417Z,1010.33
2022-08-17T01:38:26.496Z,1010.32
2022-08-17T01:39:25.798Z,1010.32
2022-08-17T01:40:25.929Z,1010.36
2022-08-17T01:41:26.082Z,1010.35
2022-08-17T01:42:26.261Z,1010.37
2022-08-17T01:43:26.417Z,1010.37
2022-08-17T01:44:26.609Z,1010.35
2022-08-17T01:45:26.762Z,1010.32
2022-08-17T01:46:26.959Z,1010.31
2022-08-17T01:47:27.114Z,1010.31
2022-08-17T01:48:27.291Z,1010.32
2022-08-17T01:49:27.452Z,1010.27
2022-08-17T01:50:27.611Z,1010.30
2022-08-17T01:51:27.797Z,1010.33
2022-08-17T01:52:27.981Z,1010.29
2022-08-17T01:53:28.135Z,1010.31
2022-08-17T01:54:28.324Z,1010.32
2022-08-17T01:55:28.484Z,1010.31
2022-08-17T01:56:28.695Z,1010.30
2022-08-17T01:57:28.845Z,1010.27
2022-08-17T01:58:29.037Z,1010.28
2022-08-17T01:59:29.199Z,1010.27
2022-08-17T02:00:59.622Z,1010.28
2022-08-17T02:01:30.589Z,1010.26
2022-08-17T02:02:31.328Z,1010.24
2022-08-17T02:03:29.887Z,1010.26
2022-08-17T02:04:30.077Z,1010.25
2022-08-17T02:05:30.248Z,1010.26
2022-08-17T02:06:30.431Z,1010.27
2022-08-17T02:07:30.589Z,1010.23
2022-08-17T02:08:37.341Z,1010.29
2022-08-17T02:09:31.960Z,1010.26
2022-08-17T02:10:33.887Z,1010.23
2022-08-17T02:11:31.268Z,1010.20
2022-08-17T02:12:48.714Z,1010.24
2022-08-17T02:13:32.611Z,1010.21
2022-08-17T02:14:31.810Z,1010.25
2022-08-17T02:15:31.973Z,1010.24
2022-08-17T02:16:37.055Z,1010.25
2022-08-17T02:17:33.320Z,1010.27
2022-08-17T02:18:32.508Z,1010.30
2022-08-17T02:19:32.686Z,1010.30
2022-08-17T02:20:42.490Z,1010.28
2022-08-17T02:21:33.998Z,1010.32
2022-08-17T02:22:33.184Z,1010.30
2022-08-17T02:23:33.355Z,1010.28
2022-08-17T02:24:59.536Z,1010.31
2022-08-17T02:25:34.704Z,1010.24
2022-08-17T02:26:33.885Z,1010.25
2022-08-17T02:27:34.048Z,1010.23
2022-08-17T02:28:34.237Z,1010.22
2022-08-17T02:29:34.397Z,1010.23
2022-08-17T02:31:01.301Z,1010.25
2022-08-17T02:31:35.721Z,1010.25
2022-08-17T02:32:34.919Z,1010.26
2022-08-17T02:33:42.935Z,1010.26
2022-08-17T02:34:36.262Z,1010.26
2022-08-17T02:35:35.449Z,1010.22
2022-08-17T02:36:35.622Z,1010.21
2022-08-17T02:37:35.780Z,1010.19
2022-08-17T02:38:35.942Z,1010.21
2022-08-17T02:39:36.135Z,1010.17
2022-08-17T02:40:36.749Z,1010.14
2022-08-17T02:41:36.463Z,1010.16
2022-08-17T02:42:36.635Z,1010.20
2022-08-17T02:43:36.793Z,1010.17
2022-08-17T02:44:40.010Z,1010.17
2022-08-17T02:45:37.167Z,1010.15
2022-08-17T02:46:37.334Z,1010.17
2022-08-17T02:47:37.504Z,1010.12
2022-08-17T02:48:37.665Z,1010.14
2022-08-17T02:49:37.824Z,1010.14
2022-08-17T02:50:37.995Z,1010.10
2022-08-17T02:51:38.154Z,1010.11
2022-08-17T02:53:01.423Z,1010.16
2022-08-17T02:53:39.474Z,1010.13
2022-08-17T02:54:41.827Z,1010.14
2022-08-17T02:55:38.817Z,1010.17
2022-08-17T02:56:38.983Z,1010.17
2022-08-17T02:57:39.154Z,1010.18
2022-08-17T02:58:39.318Z,1010.18
2022-08-17T02:59:39.473Z,1010.15
2022-08-17T03:00:39.636Z,1010.15
2022-08-17T03:01:39.860Z,1010.13
2022-08-17T03:02:40.000Z,1010.09
2022-08-17T03:03:40.158Z,1010.09
2022-08-17T03:04:40.329Z,1010.10
2022-08-17T03:05:40.482Z,1010.11
2022-08-17T03:06:40.651Z,1010.13
2022-08-17T03:07:40.823Z,1010.13
2022-08-17T03:08:40.976Z,1010.15
2022-08-17T03:09:41.137Z,1010.14
2022-08-17T03:10:41.302Z,1010.16
2022-08-17T03:11:41.474Z,1010.14
2022-08-17T03:12:41.658Z,1010.17
2022-08-17T03:13:41.814Z,1010.16
2022-08-17T03:14:42.061Z,1010.20
2022-08-17T03:15:43.964Z,1010.15
2022-08-17T03:16:42.349Z,1010.14
2022-08-17T03:17:42.493Z,1010.16
2022-08-17T03:18:42.656Z,1010.17
2022-08-17T03:19:43.164Z,1010.14
2022-08-17T03:20:42.995Z,1010.12
2022-08-17T03:21:43.169Z,1010.14
2022-08-17T03:22:43.323Z,1010.11
2022-08-17T03:23:43.486Z,1010.05
2022-08-17T03:24:43.678Z,1010.09
2022-08-17T03:25:44.112Z,1010.03
2022-08-17T03:26:44.020Z,1010.03
2022-08-17T03:27:44.169Z,1010.05
2022-08-17T03:28:44.370Z,1010.07
2022-08-17T03:29:44.552Z,1010.03
2022-08-17T03:30:44.711Z,1010.07
2022-08-17T03:31:44.871Z,1010.02
2022-08-17T03:32:45.032Z,1010.05
2022-08-17T03:33:45.204Z,1010.08
2022-08-17T03:34:45.376Z,1010.09
2022-08-17T03:35:45.537Z,1010.08
2022-08-17T03:36:45.702Z,1010.09
2022-08-17T03:37:45.868Z,1010.10
2022-08-17T03:38:46.055Z,1010.14
2022-08-17T03:39:46.296Z,1010.17
2022-08-17T03:40:57.631Z,1010.17
2022-08-17T03:41:47.594Z,1010.15
2022-08-17T03:42:46.754Z,1010.17
2022-08-17T03:43:46.916Z,1010.16
2022-08-17T03:44:47.097Z,1010.16
2022-08-17T03:45:47.257Z,1010.17
2022-08-17T03:46:47.418Z,1010.16
2022-08-17T03:47:47.590Z,1010.15
2022-08-17T03:48:47.759Z,1010.16
2022-08-17T03:49:47.940Z,1010.16
2022-08-17T03:50:48.098Z,1010.16
2022-08-17T03:51:48.276Z,1010.17
2022-08-17T03:52:51.892Z,1010.17
2022-08-17T03:53:48.620Z,1010.14
2022-08-17T03:54:48.829Z,1010.14
2022-08-17T03:55:48.971Z,1010.15
2022-08-17T03:56:49.132Z,1010.14
2022-08-17T03:57:49.312Z,1010.14
2022-08-17T03:58:49.486Z,1010.16
2022-08-17T03:59:49.662Z,1010.13
2022-08-17T04:00:49.842Z,1010.18
2022-08-17T04:01:50.145Z,1010.16
2022-08-17T04:02:50.277Z,1010.15
2022-08-17T04:03:50.355Z,1010.18
2022-08-17T04:04:50.520Z,1010.15
2022-08-17T04:05:50.699Z,1010.13
2022-08-17T04:06:50.893Z,1010.17
2022-08-17T04:07:51.037Z,1010.12
2022-08-17T04:08:51.224Z,1010.16
2022-08-17T04:09:51.396Z,1010.12
2022-08-17T04:10:51.585Z,1010.14
2022-08-17T04:11:51.787Z,1010.13
2022-08-17T04:12:52.142Z,1010.11
2022-08-17T04:13:52.108Z,1010.12
2022-08-17T04:14:54.775Z,1010.10
2022-08-17T04:15:52.478Z,1010.12
2022-08-17T04:16:52.654Z,1010.10
2022-08-17T04:17:52.800Z,1010.14
2022-08-17T04:18:52.978Z,1010.12
2022-08-17T04:19:53.206Z,1010.13
2022-08-17T04:20:53.334Z,1010.15
2022-08-17T04:21:53.531Z,1010.13
2022-08-17T04:22:53.682Z,1010.13
2022-08-17T04:23:53.869Z,1010.17
2022-08-17T04:24:54.051Z,1010.15
2022-08-17T04:25:54.233Z,1010.13
2022-08-17T04:26:54.786Z,1010.19
2022-08-17T04:27:54.581Z,1010.19
2022-08-17T04:28:54.763Z,1010.17
2022-08-17T04:29:56.121Z,1010.16
2022-08-17T04:30:55.094Z,1010.19
2022-08-17T04:31:55.249Z,1010.22
2022-08-17T04:33:05.010Z,1010.24
2022-08-17T04:33:56.589Z,1010.18
2022-08-17T04:34:55.741Z,1010.25
2022-08-17T04:35:55.916Z,1010.27
2022-08-17T04:36:56.107Z,1010.27
2022-08-17T04:37:56.297Z,1010.29
2022-08-17T04:38:58.210Z,1010.27
2022-08-17T04:40:00.721Z,1010.32
2022-08-17T04:40:57.788Z,1010.32
2022-08-17T04:41:56.967Z,1010.31
2022-08-17T04:43:00.185Z,1010.33
2022-08-17T04:43:57.279Z,1010.34
2022-08-17T04:44:57.490Z,1010.36
2022-08-17T04:45:57.641Z,1010.41
2022-08-17T04:46:57.821Z,1010.42
2022-08-17T04:47:58.002Z,1010.39
2022-08-17T04:48:58.180Z,1010.39
2022-08-17T04:49:58.361Z,1010.40
2022-08-17T04:50:58.543Z,1010.38
2022-08-17T04:52:01.282Z,1010.41
2022-08-17T04:53:00.176Z,1010.45
2022-08-17T04:53:59.054Z,1010.47
2022-08-17T04:54:59.233Z,1010.45
2022-08-17T04:55:59.419Z,1010.44
2022-08-17T04:56:59.595Z,1010.45
2022-08-17T04:57:59.738Z,1010.48
2022-08-17T04:58:59.915Z,1010.51
2022-08-17T05:00:00.110Z,1010.53
2022-08-17T05:01:00.412Z,1010.53
2022-08-17T05:02:00.468Z,1010.56
2022-08-17T05:03:00.610Z,1010.56
2022-08-17T05:04:00.806Z,1010.58
2022-08-17T05:05:01.995Z,1010.60
2022-08-17T05:06:01.158Z,1010.58
2022-08-17T05:07:01.370Z,1010.60
2022-08-17T05:08:01.533Z,1010.60
2022-08-17T05:09:01.720Z,1010.61
2022-08-17T05:10:01.883Z,1010.61
2022-08-17T05:11:02.032Z,1010.67
2022-08-17T05:12:02.245Z,1010.67
2022-08-17T05:13:02.406Z,1010.68
2022-08-17T05:14:02.572Z,1010.69
2022-08-17T05:15:02.721Z,1010.68
2022-08-17T05:16:02.914Z,1010.70
2022-08-17T05:17:07.000Z,1010.72
2022-08-17T05:18:04.283Z,1010.69
2022-08-17T05:19:03.445Z,1010.70
2022-08-17T05:20:03.652Z,1010.75
2022-08-17T05:21:03.801Z,1010.78
2022-08-17T05:22:03.974Z,1010.76
2022-08-17T05:23:04.159Z,1010.74
2022-08-17T05:24:06.084Z,1010.71
2022-08-17T05:25:05.489Z,1010.71
2022-08-17T05:26:04.654Z,1010.71
2022-08-17T05:27:06.277Z,1010.70
2022-08-17T05:28:05.006Z,1010.69
2022-08-17T05:29:05.180Z,1010.69
2022-08-17T05:30:05.352Z,1010.70
2022-08-17T05:31:05.528Z,1010.72
2022-08-17T05:32:05.703Z,1010.74
2022-08-17T05:33:06.859Z,1010.74
2022-08-17T05:34:06.057Z,1010.75
2022-08-17T05:35:06.198Z,1010.75
2022-08-17T05:36:06.379Z,1010.75
2022-08-17T05:37:06.540Z,1010.75
2022-08-17T05:38:06.712Z,1010.76
2022-08-17T05:39:06.901Z,1010.80
2022-08-17T05:40:07.124Z,1010.79
2022-08-17T05:41:07.253Z,1010.80
2022-08-17T05:42:07.425Z,1010.82
2022-08-17T05:43:07.614Z,1010.81
2022-08-17T05:44:07.793Z,1010.81
2022-08-17T05:45:07.957Z,1010.79
2022-08-17T05:46:08.131Z,1010.79
2022-08-17T05:47:09.817Z,1010.81
2022-08-17T05:48:08.486Z,1010.72
2022-08-17T05:49:08.674Z,1010.78
2022-08-17T05:50:09.779Z,1010.76
2022-08-17T05:51:09.004Z,1010.79
2022-08-17T05:52:09.179Z,1010.82
2022-08-17T05:53:09.336Z,1010.79
2022-08-17T05:54:09.515Z,1010.77
2022-08-17T05:55:09.706Z,1010.76
2022-08-17T05:56:29.611Z,1010.81
2022-08-17T05:57:11.050Z,1010.83
2022-08-17T05:58:10.228Z,1010.80
2022-08-17T05:59:10.379Z,1010.81
2022-08-17T06:00:10.580Z,1010.81
2022-08-17T06:01:10.794Z,1010.80
2022-08-17T06:02:10.900Z,1010.80
2022-08-17T06:03:11.071Z,1010.76
2022-08-17T06:04:11.230Z,1010.78
2022-08-17T06:05:11.412Z,1010.79
2022-08-17T06:06:11.577Z,1010.80
2022-08-17T06:07:11.732Z,1010.78
2022-08-17T06:08:11.901Z,1010.81
2022-08-17T06:09:12.071Z,1010.82
2022-08-17T06:10:12.276Z,1010.85
2022-08-17T06:11:12.419Z,1010.84
2022-08-17T06:12:14.255Z,1010.88
2022-08-17T06:13:13.738Z,1010.87
2022-08-17T06:14:12.917Z,1010.93
2022-08-17T06:15:13.095Z,1010.94
2022-08-17T06:16:33.891Z,1010.87
2022-08-17T06:17:14.405Z,1010.91
2022-08-17T06:18:18.547Z,1010.93
2022-08-17T06:19:14.748Z,1010.92
2022-08-17T06:20:13.936Z,1010.92
2022-08-17T06:21:14.071Z,1010.92
2022-08-17T06:22:14.242Z,1010.91
2022-08-17T06:23:14.401Z,1010.95
2022-08-17T06:24:14.568Z,1010.96
2022-08-17T06:25:14.749Z,1010.92
2022-08-17T06:26:14.910Z,1010.99
2022-08-17T06:27:15.067Z,1010.99
2022-08-17T06:28:15.239Z,1011.00
2022-08-17T06:29:18.662Z,1010.97
2022-08-17T06:30:15.589Z,1011.01
2022-08-17T06:31:15.730Z,1011.00
2022-08-17T06:32:15.893Z,1011.02
2022-08-17T06:33:16.071Z,1011.04
2022-08-17T06:34:16.238Z,1010.99
2022-08-17T06:35:16.411Z,1011.01
2022-08-17T06:36:16.583Z,1010.98
2022-08-17T06:37:16.745Z,1010.99
2022-08-17T06:38:34.996Z,1010.97
2022-08-17T06:39:18.107Z,1010.98
2022-08-17T06:40:17.245Z,1010.97
2022-08-17T06:41:17.408Z,1010.93
2022-08-17T06:42:59.889Z,1010.95
2022-08-17T06:43:18.744Z,1010.98
2022-08-17T06:44:43.563Z,1010.97
2022-08-17T06:45:19.098Z,1010.95
2022-08-17T06:46:18.256Z,1010.95
2022-08-17T06:47:28.304Z,1010.99
2022-08-17T06:48:19.591Z,1010.96
2022-08-17T06:49:18.789Z,1010.94
2022-08-17T06:50:18.928Z,1010.98
2022-08-17T06:51:19.137Z,1010.96
2022-08-17T06:52:37.105Z,1010.97
2022-08-17T06:53:20.453Z,1010.99
2022-08-17T06:54:19.608Z,1010.99
2022-08-17T06:55:19.761Z,1011.01
2022-08-17T06:56:19.959Z,1011.00
2022-08-17T06:57:20.115Z,1011.04
2022-08-17T06:58:20.281Z,1011.03
2022-08-17T06:59:20.459Z,1011.03
2022-08-17T07:00:20.632Z,1011.04
2022-08-17T07:01:20.917Z,1011.04
2022-08-17T07:02:20.991Z,1011.07
2022-08-17T07:03:22.174Z,1011.07
2022-08-17T07:04:21.347Z,1011.13
2022-08-17T07:05:21.523Z,1011.11
2022-08-17T07:06:21.713Z,1011.10
2022-08-17T07:07:21.878Z,1011.09
2022-08-17T07:08:24.372Z,1011.10
2022-08-17T07:09:23.237Z,1011.07
2022-08-17T07:10:22.436Z,1011.05
2022-08-17T07:11:22.597Z,1011.05
2022-08-17T07:12:22.756Z,1011.13
2022-08-17T07:13:22.927Z,1011.08
2022-08-17T07:14:23.126Z,1011.11
2022-08-17T07:15:23.267Z,1011.09
2022-08-17T07:16:23.449Z,1011.09
2022-08-17T07:17:46.769Z,1011.08
2022-08-17T07:18:24.808Z,1011.06
2022-08-17T07:19:23.987Z,1011.04
2022-08-17T07:20:24.206Z,1011.05
2022-08-17T07:21:26.512Z,1011.05
2022-08-17T07:22:24.597Z,1011.00
2022-08-17T07:23:24.643Z,1011.03
2022-08-17T07:24:28.130Z,1011.05
2022-08-17T07:25:26.021Z,1011.02
2022-08-17T07:26:25.190Z,1011.03
2022-08-17T07:27:25.372Z,1011.03
2022-08-17T07:28:25.570Z,1011.08
2022-08-17T07:29:25.722Z,1011.06
2022-08-17T07:30:25.931Z,1011.07
2022-08-17T07:31:26.064Z,1011.07
2022-08-17T07:32:26.254Z,1011.06
2022-08-17T07:33:26.444Z,1011.06
2022-08-17T07:34:26.644Z,1011.03
2022-08-17T07:35:37.722Z,1011.01
2022-08-17T07:36:30.214Z,1011.05
2022-08-17T07:37:27.156Z,1011.06
2022-08-17T07:38:27.345Z,1011.04
2022-08-17T07:39:27.559Z,1011.06
2022-08-17T07:40:27.795Z,1011.02
2022-08-17T07:41:27.869Z,1011.09
2022-08-17T07:42:29.047Z,1011.06
2022-08-17T07:43:29.635Z,1011.07
2022-08-17T07:44:28.408Z,1011.09
2022-08-17T07:45:28.571Z,1011.07
2022-08-17T07:46:28.758Z,1011.05
2022-08-17T07:47:28.939Z,1011.08
2022-08-17T07:48:29.136Z,1011.13
2022-08-17T07:49:29.330Z,1011.08
2022-08-17T07:50:29.479Z,1011.06
2022-08-17T07:51:29.667Z,1011.08
2022-08-17T07:52:50.463Z,1011.06
2022-08-17T07:53:31.032Z,1011.09
2022-08-17T07:54:30.222Z,1011.09
2022-08-17T07:55:30.405Z,1011.11
2022-08-17T07:56:32.529Z,1011.09
2022-08-17T07:57:30.733Z,1011.12
2022-08-17T07:58:30.932Z,1011.14
2022-08-17T07:59:33.524Z,1011.13
2022-08-17T08:00:32.376Z,1011.11
2022-08-17T08:01:39.499Z,1011.10
2022-08-17T08:02:33.849Z,1011.05
2022-08-17T08:03:31.820Z,1011.06
2022-08-17T08:05:50.124Z,1011.04
2022-08-17T08:06:33.357Z,1011.02
2022-08-17T08:07:32.556Z,1011.03
2022-08-17T08:08:32.718Z,1011.02
2022-08-17T08:09:32.941Z,1011.06
2022-08-17T08:10:33.092Z,1011.05
2022-08-17T08:11:33.279Z,1011.03
2022-08-17T08:12:34.044Z,1011.08
2022-08-17T08:13:33.648Z,1011.08
2022-08-17T08:14:33.817Z,1011.10
2022-08-17T08:15:34.005Z,1011.07
2022-08-17T08:16:34.177Z,1011.11
2022-08-17T08:17:34.360Z,1011.10
2022-08-17T08:18:39.727Z,1011.11
2022-08-17T08:19:35.702Z,1011.14
2022-08-17T08:20:52.111Z,1011.16
2022-08-17T08:21:36.053Z,1011.16
2022-08-17T08:22:35.205Z,1011.16
2022-08-17T08:23:35.397Z,1011.18
2022-08-17T08:24:35.574Z,1011.14
2022-08-17T08:25:35.764Z,1011.16
2022-08-17T08:26:35.942Z,1011.11
2022-08-17T08:27:36.097Z,1011.08
2022-08-17T08:28:36.267Z,1011.05
2022-08-17T08:29:36.455Z,1011.05
2022-08-17T08:30:36.615Z,1011.01
2022-08-17T08:31:41.658Z,1011.04
2022-08-17T08:32:37.928Z,1011.02
2022-08-17T08:33:37.116Z,1011.04
2022-08-17T08:34:58.736Z,1011.03
2022-08-17T08:35:38.438Z,1011.05
2022-08-17T08:37:12.639Z,1011.05
2022-08-17T08:37:42.680Z,1011.06
2022-08-17T08:38:37.997Z,1011.06
2022-08-17T08:39:38.204Z,1011.05
2022-08-17T08:40:38.322Z,1011.01
2022-08-17T08:41:38.578Z,1010.99
2022-08-17T08:42:38.663Z,1011.00
2022-08-17T08:43:38.853Z,1010.99
2022-08-17T08:45:01.360Z,1011.02
2022-08-17T08:45:40.202Z,1010.99
2022-08-17T08:46:39.403Z,1011.06
2022-08-17T08:47:39.579Z,1011.03
2022-08-17T08:48:53.101Z,1011.02
2022-08-17T08:50:02.708Z,1011.05
2022-08-17T08:50:41.146Z,1011.04
2022-08-17T08:51:40.344Z,1011.00
2022-08-17T08:52:40.485Z,1011.00
2022-08-17T08:53:40.683Z,1011.03
2022-08-17T08:54:40.857Z,1011.04
2022-08-17T08:55:41.039Z,1011.01
2022-08-17T08:56:53.761Z,1011.05
2022-08-17T08:57:42.426Z,1011.02
2022-08-17T08:58:42.710Z,1011.10
2022-08-17T08:59:44.244Z,1011.04
2022-08-17T09:00:41.947Z,1011.04
2022-08-17T09:01:42.161Z,1011.08
2022-08-17T09:02:42.310Z,1011.03
2022-08-17T09:03:52.300Z,1011.07
2022-08-17T09:05:10.541Z,1011.04
2022-08-17T09:05:43.869Z,1011.04
2022-08-17T09:06:43.065Z,1011.07
2022-08-17T09:07:43.250Z,1011.06
2022-08-17T09:08:43.393Z,1011.04
2022-08-17T09:09:43.532Z,1011.07
2022-08-17T09:10:43.707Z,1011.06
2022-08-17T09:12:02.742Z,1011.00
2022-08-17T09:12:45.052Z,1010.99
2022-08-17T09:13:44.233Z,1010.96
2022-08-17T09:14:46.418Z,1010.98
2022-08-17T09:15:44.565Z,1010.96
2022-08-17T09:16:44.719Z,1010.97
2022-08-17T09:17:44.918Z,1010.92
2022-08-17T09:18:59.983Z,1010.96
2022-08-17T09:19:46.246Z,1010.94
2022-08-17T09:20:50.077Z,1010.92
2022-08-17T09:21:48.536Z,1010.95
2022-08-17T09:22:45.766Z,1010.97
2022-08-17T09:23:45.969Z,1010.96
2022-08-17T09:24:46.138Z,1010.95
2022-08-17T09:25:46.334Z,1010.91
2022-08-17T09:26:46.683Z,1010.98
2022-08-17T09:27:46.707Z,1010.96
2022-08-17T09:28:46.880Z,1010.91
2022-08-17T09:29:47.041Z,1010.90
2022-08-17T09:30:47.179Z,1010.92
2022-08-17T09:31:49.096Z,1010.89
2022-08-17T09:32:47.530Z,1010.88
2022-08-17T09:33:47.732Z,1010.88
2022-08-17T09:34:48.502Z,1010.91
2022-08-17T09:35:48.080Z,1010.92
2022-08-17T09:36:48.213Z,1010.95
2022-08-17T09:37:48.425Z,1010.93
2022-08-17T09:38:48.582Z,1010.95
2022-08-17T09:39:48.783Z,1010.95
2022-08-17T09:40:48.893Z,1011.01
2022-08-17T09:41:49.565Z,1010.97
2022-08-17T09:42:49.233Z,1010.99
2022-08-17T09:43:49.429Z,1010.95
2022-08-17T09:44:49.604Z,1010.92
2022-08-17T09:45:49.791Z,1010.95
2022-08-17T09:46:49.988Z,1010.95
2022-08-17T09:47:50.354Z,1010.97
2022-08-17T09:48:50.328Z,1010.99
2022-08-17T09:49:50.522Z,1010.92
2022-08-17T09:50:55.238Z,1010.92
2022-08-17T09:51:51.889Z,1010.91
2022-08-17T09:52:51.080Z,1010.94
2022-08-17T09:53:51.243Z,1010.90
2022-08-17T09:54:51.384Z,1010.85
2022-08-17T09:55:51.571Z,1010.87
2022-08-17T09:57:05.882Z,1010.85
2022-08-17T09:57:52.912Z,1010.81
2022-08-17T09:58:52.063Z,1010.84
2022-08-17T09:59:52.213Z,1010.80
2022-08-17T10:00:52.411Z,1010.82
2022-08-17T10:01:52.564Z,1010.85
2022-08-17T10:02:52.763Z,1010.81
2022-08-17T10:03:52.943Z,1010.82
2022-08-17T10:04:53.124Z,1010.83
2022-08-17T10:05:56.434Z,1010.78
2022-08-17T10:06:53.504Z,1010.75
2022-08-17T10:07:53.704Z,1010.76
2022-08-17T10:08:53.855Z,1010.74
2022-08-17T10:09:54.006Z,1010.75
2022-08-17T10:10:56.343Z,1010.72
2022-08-17T10:11:54.382Z,1010.73
2022-08-17T10:12:54.582Z,1010.72
2022-08-17T10:13:54.735Z,1010.68
2022-08-17T10:14:55.175Z,1010.70
2022-08-17T10:15:55.091Z,1010.71
2022-08-17T10:16:55.279Z,1010.71
2022-08-17T10:17:55.439Z,1010.72
2022-08-17T10:18:55.609Z,1010.72
2022-08-17T10:19:55.795Z,1010.76
2022-08-17T10:20:55.971Z,1010.72
2022-08-17T10:22:01.400Z,1010.72
2022-08-17T10:22:57.341Z,1010.68
2022-08-17T10:23:56.491Z,1010.72
2022-08-17T10:25:21.507Z,1010.72
2022-08-17T10:25:57.812Z,1010.74
2022-08-17T10:26:57.541Z,1010.73
2022-08-17T10:27:57.183Z,1010.78
2022-08-17T10:28:57.325Z,1010.78
2022-08-17T10:29:57.515Z,1010.72
2022-08-17T10:31:16.714Z,1010.78
2022-08-17T10:31:58.847Z,1010.73
2022-08-17T10:32:58.015Z,1010.73
2022-08-17T10:33:58.193Z,1010.73
2022-08-17T10:34:58.396Z,1010.75
2022-08-17T10:35:58.535Z,1010.76
2022-08-17T10:36:58.735Z,1010.78
2022-08-17T10:37:58.918Z,1010.77
2022-08-17T10:38:59.068Z,1010.70
2022-08-17T10:39:59.346Z,1010.74
2022-08-17T10:40:59.407Z,1010.71
2022-08-17T10:41:59.607Z,1010.73
2022-08-17T10:42:59.779Z,1010.73
2022-08-17T10:44:38.799Z,1010.68
2022-08-17T10:45:01.151Z,1010.69
2022-08-17T10:46:10.422Z,1010.73
2022-08-17T10:47:01.504Z,1010.69
2022-08-17T10:48:05.063Z,1010.68
2022-08-17T10:49:01.852Z,1010.67
2022-08-17T10:50:01.060Z,1010.70
2022-08-17T10:51:01.201Z,1010.73
2022-08-17T10:52:01.357Z,1010.71
2022-08-17T10:53:01.540Z,1010.73
2022-08-17T10:54:01.744Z,1010.72
2022-08-17T10:55:01.892Z,1010.62
2022-08-17T10:56:02.055Z,1010.55
2022-08-17T10:57:02.243Z,1010.59
2022-08-17T10:58:02.446Z,1010.55
2022-08-17T10:59:02.593Z,1010.55
2022-08-17T11:00:02.815Z,1010.52
2022-08-17T11:01:03.045Z,1010.49
2022-08-17T11:02:03.145Z,1010.50
2022-08-17T11:03:03.287Z,1010.47
2022-08-17T11:04:03.476Z,1010.46
2022-08-17T11:05:03.648Z,1010.47
2022-08-17T11:06:03.861Z,1010.49
2022-08-17T11:07:04.018Z,1010.50
2022-08-17T11:08:04.178Z,1010.46
2022-08-17T11:09:04.341Z,1010.46
2022-08-17T11:10:04.523Z,1010.50
2022-08-17T11:11:04.709Z,1010.48
2022-08-17T11:12:04.910Z,1010.47
2022-08-17T11:13:05.701Z,1010.45
2022-08-17T11:14:05.246Z,1010.44
2022-08-17T11:15:05.447Z,1010.45
2022-08-17T11:16:08.373Z,1010.37
2022-08-17T11:17:05.792Z,1010.36
2022-08-17T11:18:05.960Z,1010.34
2022-08-17T11:19:06.096Z,1010.36
2022-08-17T11:20:06.284Z,1010.35
2022-08-17T11:21:06.474Z,1010.38
2022-08-17T11:22:06.661Z,1010.37
2022-08-17T11:23:06.890Z,1010.37
2022-08-17T11:24:07.035Z,1010.35
2022-08-17T11:25:07.219Z,1010.37
2022-08-17T11:26:07.405Z,1010.37
2022-08-17T11:27:07.586Z,1010.31
2022-08-17T11:28:07.807Z,1010.36
2022-08-17T11:29:07.930Z,1010.32
2022-08-17T11:30:08.123Z,1010.33
2022-08-17T11:31:08.285Z,1010.31
2022-08-17T11:32:11.248Z,1010.30
2022-08-17T11:33:08.645Z,1010.32
2022-08-17T11:34:08.819Z,1010.30
2022-08-17T11:35:08.990Z,1010.31
2022-08-17T11:36:09.165Z,1010.29
2022-08-17T11:37:09.310Z,1010.32
2022-08-17T11:38:14.009Z,1010.30
2022-08-17T11:39:10.711Z,1010.32
2022-08-17T11:40:09.987Z,1010.33
2022-08-17T11:41:10.070Z,1010.32
2022-08-17T11:42:10.222Z,1010.34
2022-08-17T11:43:10.412Z,1010.32
2022-08-17T11:44:10.558Z,1010.34
2022-08-17T11:45:10.738Z,1010.35
2022-08-17T11:46:10.923Z,1010.34
2022-08-17T11:47:11.113Z,1010.38
2022-08-17T11:48:27.247Z,1010.34
2022-08-17T11:49:12.473Z,1010.33
2022-08-17T11:50:11.668Z,1010.29
2022-08-17T11:51:11.855Z,1010.31
2022-08-17T11:52:12.019Z,1010.30
2022-08-17T11:53:12.185Z,1010.29
2022-08-17T11:54:32.429Z,1010.27
2022-08-17T11:55:34.444Z,1010.26
2022-08-17T11:56:13.698Z,1010.26
2022-08-17T11:57:12.900Z,1010.27
2022-08-17T11:58:13.089Z,1010.24
2022-08-17T11:59:13.232Z,1010.25
2022-08-17T12:00:13.421Z,1010.25
2022-08-17T12:01:16.117Z,1010.24
2022-08-17T12:02:13.770Z,1010.27
2022-08-17T12:03:13.980Z,1010.27
2022-08-17T12:04:14.123Z,1010.25
2022-08-17T12:05:14.302Z,1010.29
2022-08-17T12:06:14.466Z,1010.32
2022-08-17T12:07:14.654Z,1010.29
2022-08-17T12:08:14.853Z,1010.32